Time;durP1;ratioP1;P1;durP2;ratioP2;P2;SDS_P1;SDS_P2;PMS_P1;PMS_P2;Temp;Humidity;BMP_temperature;BMP_pressure;BME280_temperature;BME280_humidity;BME280_pressure;Samples;Min_cycle;Max_cycle;Signal;HPM_P1;HPM_P2
2023/09/08 00:02:25;;;;;;;21.08;11.52;;;16.10;96.50;;;;;;4956501;28;20055;-91
2023/09/08 00:04:54;;;;;;;21.33;12.38;;;16.10;96.50;;;;;;4940539;28;20074;-91
2023/09/08 00:07:21;;;;;;;20.08;12.25;;;16.10;96.60;;;;;;4955770;28;20047;-91
2023/09/08 00:09:48;;;;;;;18.60;12.13;;;16.00;96.80;;;;;;4954317;28;20568;-92
2023/09/08 00:12:34;;;;;;;23.35;12.88;;;16.00;97.30;;;;;;4957736;28;20042;-92
2023/09/08 00:15:01;;;;;;;23.77;12.70;;;16.00;97.40;;;;;;4952507;28;20102;-91
2023/09/08 00:17:28;;;;;;;23.38;12.80;;;16.00;97.70;;;;;;4955244;28;20050;-90
2023/09/08 00:19:57;;;;;;;22.25;13.57;;;16.00;97.70;;;;;;4955793;28;20058;-90
2023/09/08 00:22:24;;;;;;;20.77;12.65;;;16.00;97.80;;;;;;4949144;28;20097;-92
2023/09/08 00:24:51;;;;;;;22.40;13.55;;;16.00;98.00;;;;;;4940809;28;20133;-91
2023/09/08 00:27:18;;;;;;;28.17;14.18;;;16.10;98.60;;;;;;4952241;28;20051;-92
2023/09/08 00:29:45;;;;;;;18.77;12.40;;;16.10;98.20;;;;;;4948147;28;20404;-91
2023/09/08 00:32:11;;;;;;;21.20;13.38;;;16.00;97.80;;;;;;4952755;28;20102;-91
2023/09/08 00:34:40;;;;;;;20.60;13.70;;;16.00;98.30;;;;;;4949038;29;20055;-92
2023/09/08 00:37:09;;;;;;;20.20;12.70;;;16.00;98.60;;;;;;4952449;28;20071;-92
2023/09/08 00:39:37;;;;;;;27.70;13.27;;;16.00;98.20;;;;;;4954708;28;20106;-93
2023/09/08 00:42:04;;;;;;;24.00;13.23;;;15.90;98.20;;;;;;4949605;28;20059;-93
2023/09/08 00:44:31;;;;;;;19.67;13.10;;;15.90;98.10;;;;;;4942506;28;20051;-92
2023/09/08 00:46:58;;;;;;;20.30;12.70;;;15.90;98.00;;;;;;4947904;28;20062;-92
2023/09/08 00:49:25;;;;;;;19.60;13.30;;;15.80;98.30;;;;;;4940168;28;20507;-92
2023/09/08 00:51:52;;;;;;;22.45;14.02;;;15.80;98.30;;;;;;4944282;28;20105;-92
2023/09/08 00:54:20;;;;;;;19.38;12.65;;;15.70;98.40;;;;;;4947203;28;20062;-91
2023/09/08 00:56:48;;;;;;;20.75;13.95;;;15.60;98.30;;;;;;4954725;28;20219;-92
2023/09/08 00:59:16;;;;;;;23.75;13.65;;;15.60;98.40;;;;;;4944376;28;20051;-92
2023/09/08 01:01:43;;;;;;;21.13;14.02;;;15.50;98.80;;;;;;4950465;28;20046;-92
2023/09/08 01:04:10;;;;;;;25.63;13.80;;;15.50;98.90;;;;;;4971544;28;20056;-92
2023/09/08 01:06:37;;;;;;;26.58;15.00;;;15.50;99.20;;;;;;4953210;28;20105;-92
2023/09/08 01:09:05;;;;;;;22.40;14.15;;;15.50;99.10;;;;;;4954719;28;20514;-92
2023/09/08 01:11:32;;;;;;;24.25;15.55;;;15.50;99.20;;;;;;4975484;28;20110;-92
2023/09/08 01:13:59;;;;;;;23.25;14.15;;;15.50;99.30;;;;;;4957507;28;20063;-92
2023/09/08 01:16:26;;;;;;;25.83;14.93;;;15.50;99.40;;;;;;4946827;28;20097;-91
2023/09/08 01:18:54;;;;;;;25.67;16.13;;;15.40;99.40;;;;;;4959959;28;20062;-91
2023/09/08 01:21:27;;;;;;;23.35;15.00;;;15.40;99.00;;;;;;4945958;28;20282;-92
2023/09/08 01:24:16;;;;;;;29.45;15.98;;;15.30;98.60;;;;;;4965728;28;20209;-92
2023/09/08 01:26:44;;;;;;;25.95;15.48;;;15.30;98.60;;;;;;4953536;28;20074;-92
2023/09/08 01:29:12;;;;;;;28.90;15.05;;;15.20;98.80;;;;;;4942739;28;20125;-92
2023/09/08 01:31:39;;;;;;;26.85;16.08;;;15.20;98.80;;;;;;4940134;28;20102;-92
2023/09/08 01:34:08;;;;;;;23.50;15.25;;;15.10;98.90;;;;;;4952531;28;20054;-92
2023/09/08 01:36:35;;;;;;;29.08;15.60;;;15.00;99.10;;;;;;4956656;28;20126;-92
2023/09/08 01:39:03;;;;;;;23.02;15.38;;;15.00;98.90;;;;;;4951267;28;20058;-91
2023/09/08 01:41:32;;;;;;;34.85;16.92;;;14.90;99.30;;;;;;4955019;28;20051;-92
2023/09/08 01:44:00;;;;;;;30.00;16.95;;;14.90;99.90;;;;;;4964376;28;20073;-92
2023/09/08 01:46:27;;;;;;;27.20;16.98;;;14.80;99.90;;;;;;4946791;28;20051;-91
2023/09/08 01:48:54;;;;;;;30.52;17.90;;;14.80;100.00;;;;;;4954969;28;20058;-91
2023/09/08 01:51:21;;;;;;;27.90;16.58;;;14.80;100.00;;;;;;4957889;28;20051;-91
2023/09/08 01:53:48;;;;;;;34.42;17.95;;;14.80;100.00;;;;;;4966904;28;20270;-91
2023/09/08 01:56:15;;;;;;;26.98;16.95;;;14.70;100.00;;;;;;4956390;28;20047;-91
2023/09/08 01:58:41;;;;;;;31.73;17.83;;;14.70;100.00;;;;;;4952751;28;20051;-92
2023/09/08 02:01:08;;;;;;;32.40;17.88;;;14.70;100.00;;;;;;4944534;28;20141;-91
2023/09/08 02:03:35;;;;;;;31.40;18.15;;;14.70;100.00;;;;;;4955028;28;20054;-90
2023/09/08 02:06:02;;;;;;;29.80;18.42;;;14.70;100.00;;;;;;4939674;28;20109;-91
2023/09/08 02:08:29;;;;;;;29.02;17.48;;;14.60;100.00;;;;;;4960287;28;20457;-91
2023/09/08 02:10:56;;;;;;;37.25;19.15;;;14.60;100.00;;;;;;4967194;28;20465;-92
2023/09/08 02:13:23;;;;;;;34.60;19.23;;;14.60;100.00;;;;;;4942079;28;20551;-91
2023/09/08 02:15:50;;;;;;;31.38;18.80;;;14.60;100.00;;;;;;4961022;28;20047;-90
2023/09/08 02:18:17;;;;;;;38.05;18.50;;;14.60;100.00;;;;;;4948512;28;20129;-91
2023/09/08 02:20:44;;;;;;;33.38;19.00;;;14.60;100.00;;;;;;4951747;28;20494;-91
2023/09/08 02:23:11;;;;;;;31.45;18.92;;;14.50;100.00;;;;;;4957400;28;20062;-91
2023/09/08 02:25:38;;;;;;;30.17;18.33;;;14.50;100.00;;;;;;4959495;28;20097;-91
2023/09/08 02:28:05;;;;;;;32.53;18.52;;;14.50;100.00;;;;;;4946098;28;20078;-87
2023/09/08 02:30:32;;;;;;;34.45;19.35;;;14.50;100.00;;;;;;4944358;28;20046;-88
2023/09/08 02:32:59;;;;;;;33.85;19.25;;;14.50;100.00;;;;;;4953018;28;20046;-88
2023/09/08 02:35:26;;;;;;;37.20;18.70;;;14.50;100.00;;;;;;4942651;28;20077;-88
2023/09/08 02:37:53;;;;;;;33.72;19.88;;;14.50;100.00;;;;;;4948866;28;20496;-87
2023/09/08 02:40:20;;;;;;;31.35;17.65;;;14.50;100.00;;;;;;4963049;28;20042;-88
2023/09/08 02:42:47;;;;;;;34.17;17.90;;;14.50;100.00;;;;;;4955440;28;20043;-87
2023/09/08 02:45:14;;;;;;;33.63;18.98;;;14.40;100.00;;;;;;4951743;28;20042;-88
2023/09/08 02:47:41;;;;;;;32.17;18.52;;;14.40;100.00;;;;;;4970345;28;20042;-88
2023/09/08 02:50:09;;;;;;;34.83;18.70;;;14.30;100.00;;;;;;4946486;28;20059;-87
2023/09/08 02:52:36;;;;;;;33.15;18.67;;;14.20;100.00;;;;;;4942291;28;20512;-87
2023/09/08 02:55:03;;;;;;;30.77;17.85;;;14.20;100.00;;;;;;4946626;28;20134;-88
2023/09/08 02:57:30;;;;;;;30.23;17.98;;;14.10;100.00;;;;;;4963759;28;20137;-87
2023/09/08 02:59:57;;;;;;;32.80;17.27;;;14.10;100.00;;;;;;4949804;28;20067;-87
2023/09/08 03:02:27;;;;;;;25.17;16.10;;;14.00;100.00;;;;;;4957366;28;20051;-88
2023/09/08 03:04:54;;;;;;;30.10;16.70;;;14.00;100.00;;;;;;4944108;28;20652;-88
2023/09/08 03:07:21;;;;;;;30.25;17.52;;;13.90;100.00;;;;;;4947986;28;20043;-88
2023/09/08 03:09:48;;;;;;;28.20;16.55;;;13.90;100.00;;;;;;4947836;28;20055;-88
2023/09/08 03:12:15;;;;;;;31.60;16.98;;;13.80;100.00;;;;;;4945443;28;20051;-87
2023/09/08 03:14:42;;;;;;;28.83;17.27;;;13.80;100.00;;;;;;4950289;28;20043;-87
2023/09/08 03:17:13;;;;;;;33.17;18.40;;;13.80;100.00;;;;;;4968564;28;20487;-88
2023/09/08 03:19:44;;;;;;;33.42;18.77;;;13.70;100.00;;;;;;4948694;28;20062;-88
2023/09/08 03:22:11;;;;;;;38.78;21.67;;;13.80;100.00;;;;;;4938239;28;20552;-88
2023/09/08 03:24:38;;;;;;;41.95;22.55;;;13.70;100.00;;;;;;4961013;28;20062;-88
2023/09/08 03:27:05;;;;;;;43.08;20.83;;;13.70;100.00;;;;;;4949676;28;20074;-89
2023/09/08 03:29:32;;;;;;;36.25;21.08;;;13.70;100.00;;;;;;4948119;28;20047;-89
2023/09/08 03:31:59;;;;;;;37.10;20.85;;;13.70;100.00;;;;;;4946248;28;20456;-88
2023/09/08 03:34:26;;;;;;;32.40;19.60;;;13.70;100.00;;;;;;4954173;28;20041;-88
2023/09/08 03:36:55;;;;;;;34.20;20.83;;;13.70;100.00;;;;;;4961091;28;20110;-90
2023/09/08 03:39:22;;;;;;;36.70;21.15;;;13.70;100.00;;;;;;4944956;28;20047;-88
2023/09/08 03:41:48;;;;;;;37.70;21.58;;;13.80;100.00;;;;;;4964596;28;20059;-88
2023/09/08 03:44:15;;;;;;;40.28;20.80;;;13.90;100.00;;;;;;4945768;28;20129;-89
2023/09/08 03:46:42;;;;;;;33.22;20.10;;;14.00;100.00;;;;;;4959694;28;20047;-88
2023/09/08 03:49:12;;;;;;;35.88;20.88;;;14.00;100.00;;;;;;4947421;28;20063;-88
2023/09/08 03:51:39;;;;;;;33.20;20.20;;;14.00;100.00;;;;;;4965028;28;20264;-88
2023/09/08 03:54:06;;;;;;;42.03;21.90;;;14.00;100.00;;;;;;4965848;28;20054;-89
2023/09/08 03:56:33;;;;;;;36.85;21.13;;;14.10;100.00;;;;;;4944631;28;20042;-89
2023/09/08 03:59:00;;;;;;;42.80;20.92;;;14.00;100.00;;;;;;4946637;28;20768;-89
2023/09/08 04:01:27;;;;;;;40.25;21.15;;;14.00;100.00;;;;;;4947070;28;20054;-89
2023/09/08 04:03:54;;;;;;;32.28;18.55;;;14.00;100.00;;;;;;4951762;28;20387;-89
2023/09/08 04:06:21;;;;;;;39.13;20.70;;;14.00;100.00;;;;;;4950791;28;20134;-88
2023/09/08 04:08:51;;;;;;;40.45;21.08;;;14.00;100.00;;;;;;4947451;28;20070;-89
2023/09/08 04:11:18;;;;;;;32.63;19.27;;;13.90;100.00;;;;;;4943865;29;20091;-89
2023/09/08 04:13:45;;;;;;;36.88;20.75;;;13.90;100.00;;;;;;4949003;28;20492;-89
2023/09/08 04:16:12;;;;;;;34.80;20.75;;;13.90;100.00;;;;;;4942410;28;20428;-89
2023/09/08 04:18:39;;;;;;;36.20;20.25;;;13.80;100.00;;;;;;4960759;28;20054;-88
2023/09/08 04:21:09;;;;;;;43.47;22.48;;;13.90;100.00;;;;;;4970247;28;20069;-88
2023/09/08 04:23:36;;;;;;;43.13;23.52;;;13.90;100.00;;;;;;4953308;28;20130;-89
2023/09/08 04:26:04;;;;;;;39.80;21.98;;;14.00;100.00;;;;;;4950465;28;20059;-89
2023/09/08 04:28:31;;;;;;;46.25;22.67;;;14.00;100.00;;;;;;4940256;28;20408;-88
2023/09/08 04:30:59;;;;;;;46.60;23.80;;;14.00;100.00;;;;;;4949761;28;20539;-90
2023/09/08 04:33:26;;;;;;;47.15;22.85;;;14.00;100.00;;;;;;4970698;28;20510;-89
2023/09/08 04:35:53;;;;;;;45.47;22.98;;;14.10;100.00;;;;;;4951137;28;20272;-88
2023/09/08 04:38:20;;;;;;;45.72;23.10;;;14.10;100.00;;;;;;4951296;28;20059;-88
2023/09/08 04:40:47;;;;;;;44.63;24.10;;;14.10;100.00;;;;;;4948661;28;20198;-88
2023/09/08 04:43:14;;;;;;;45.67;24.10;;;14.20;100.00;;;;;;4946069;28;20051;-88
2023/09/08 04:45:41;;;;;;;49.72;25.13;;;14.20;100.00;;;;;;4945387;29;20488;-91
2023/09/08 04:48:08;;;;;;;45.03;24.10;;;14.20;100.00;;;;;;4944227;28;20063;-89
2023/09/08 04:50:35;;;;;;;47.33;23.90;;;14.30;100.00;;;;;;4951150;28;20089;-88
2023/09/08 04:53:02;;;;;;;45.13;23.80;;;14.30;100.00;;;;;;4964094;28;20074;-91
2023/09/08 04:55:29;;;;;;;47.90;24.27;;;14.30;100.00;;;;;;4949332;28;20169;-90
2023/09/08 04:57:56;;;;;;;38.10;24.15;;;14.40;100.00;;;;;;4949749;28;20051;-88
2023/09/08 05:00:23;;;;;;;41.75;23.10;;;14.40;100.00;;;;;;4960847;28;21662;-89
2023/09/08 05:02:50;;;;;;;42.72;24.65;;;14.50;100.00;;;;;;4946163;28;20043;-86
2023/09/08 05:05:17;;;;;;;40.20;23.30;;;14.50;100.00;;;;;;4951031;28;20377;-87
2023/09/08 05:07:45;;;;;;;38.78;23.70;;;14.60;100.00;;;;;;4949914;28;20069;-87
2023/09/08 05:10:12;;;;;;;44.63;22.15;;;14.60;100.00;;;;;;4943126;28;20113;-87
2023/09/08 05:12:39;;;;;;;40.40;21.75;;;14.60;100.00;;;;;;4963021;28;20487;-86
2023/09/08 05:15:10;;;;;;;36.45;22.08;;;14.60;100.00;;;;;;4960418;28;20051;-87
2023/09/08 05:17:37;;;;;;;39.00;22.10;;;14.60;100.00;;;;;;4942978;28;20679;-87
2023/09/08 05:20:05;;;;;;;38.38;23.15;;;14.60;100.00;;;;;;4962815;28;20097;-87
2023/09/08 05:22:32;;;;;;;35.95;21.40;;;14.70;100.00;;;;;;4939582;28;20051;-86
2023/09/08 05:24:59;;;;;;;42.78;21.98;;;14.70;100.00;;;;;;4941371;28;20059;-86
2023/09/08 05:27:26;;;;;;;46.35;22.20;;;14.70;100.00;;;;;;4941813;28;20049;-86
2023/09/08 05:29:54;;;;;;;36.30;22.55;;;14.70;100.00;;;;;;4944201;28;20058;-86
2023/09/08 05:32:21;;;;;;;38.67;21.45;;;14.80;100.00;;;;;;4966927;28;20043;-86
2023/09/08 05:34:47;;;;;;;37.50;21.30;;;14.80;100.00;;;;;;4937139;28;20069;-87
2023/09/08 05:37:14;;;;;;;32.55;20.00;;;14.80;100.00;;;;;;4962107;28;20046;-86
2023/09/08 05:39:41;;;;;;;33.72;21.15;;;14.90;100.00;;;;;;4949084;28;20464;-87
2023/09/08 05:42:08;;;;;;;44.22;21.42;;;14.90;100.00;;;;;;4951373;28;20113;-89
2023/09/08 05:44:35;;;;;;;37.88;20.50;;;15.00;100.00;;;;;;4943236;28;20284;-89
2023/09/08 05:47:02;;;;;;;34.50;20.48;;;15.00;100.00;;;;;;4951941;28;20053;-90
2023/09/08 05:49:29;;;;;;;32.45;20.50;;;15.10;100.00;;;;;;4951973;28;20049;-90
2023/09/08 05:51:56;;;;;;;31.45;20.08;;;15.10;100.00;;;;;;4955137;28;20142;-89
2023/09/08 05:54:23;;;;;;;32.75;21.30;;;15.20;100.00;;;;;;4949242;28;20047;-90
2023/09/08 05:56:50;;;;;;;32.75;20.65;;;15.30;100.00;;;;;;4939589;28;20055;-89
2023/09/08 05:59:17;;;;;;;32.78;19.42;;;15.30;100.00;;;;;;4953862;28;20047;-89
2023/09/08 06:01:44;;;;;;;33.10;19.73;;;15.40;100.00;;;;;;4972822;28;20105;-89
2023/09/08 06:04:11;;;;;;;35.88;19.90;;;15.50;100.00;;;;;;4967757;28;20049;-90
2023/09/08 06:06:38;;;;;;;32.10;19.13;;;15.60;100.00;;;;;;4944930;28;20062;-90
2023/09/08 06:09:07;;;;;;;32.53;20.60;;;15.70;100.00;;;;;;4946030;28;20061;-90
2023/09/08 06:11:34;;;;;;;33.17;18.80;;;15.80;99.90;;;;;;4945291;28;20050;-89
2023/09/08 06:14:01;;;;;;;33.55;18.15;;;15.80;99.70;;;;;;4950339;28;20051;-90
2023/09/08 06:16:28;;;;;;;30.13;18.05;;;15.90;99.60;;;;;;4944242;28;20114;-90
2023/09/08 06:18:55;;;;;;;30.25;18.35;;;16.00;99.90;;;;;;4949478;28;20086;-90
2023/09/08 06:21:22;;;;;;;24.05;17.05;;;16.20;99.80;;;;;;4943810;28;20043;-89
2023/09/08 06:23:49;;;;;;;24.63;16.00;;;16.40;99.20;;;;;;4946707;28;20623;-89
2023/09/08 06:26:16;;;;;;;23.67;16.00;;;16.70;98.60;;;;;;4946351;28;20074;-89
2023/09/08 06:28:43;;;;;;;22.60;14.73;;;17.10;97.30;;;;;;4942896;28;20062;-90
2023/09/08 06:31:11;;;;;;;20.42;14.35;;;17.40;95.40;;;;;;4941740;28;20059;-90
2023/09/08 06:33:38;;;;;;;18.40;13.15;;;17.70;93.80;;;;;;4961594;28;20149;-90
2023/09/08 06:36:05;;;;;;;28.73;14.50;;;18.00;93.20;;;;;;4951807;28;20066;-89
2023/09/08 06:38:33;;;;;;;19.98;12.65;;;18.30;90.90;;;;;;4949865;28;20432;-89
2023/09/08 06:41:00;;;;;;;18.92;12.07;;;18.70;90.10;;;;;;4952008;28;20043;-87
2023/09/08 06:43:27;;;;;;;16.08;10.43;;;19.00;88.40;;;;;;4951207;28;20137;-86
2023/09/08 06:45:54;;;;;;;14.65;9.98;;;19.20;87.40;;;;;;4948963;28;20047;-86
2023/09/08 06:48:21;;;;;;;18.65;10.32;;;19.40;86.30;;;;;;4957185;28;20074;-87
2023/09/08 06:50:48;;;;;;;17.92;9.38;;;19.70;85.20;;;;;;4945052;28;20050;-87
2023/09/08 06:53:15;;;;;;;16.90;9.68;;;20.00;84.30;;;;;;4962677;28;20031;-87
2023/09/08 06:55:42;;;;;;;11.82;9.00;;;20.30;83.10;;;;;;4975659;28;20042;-87
2023/09/08 06:58:12;;;;;;;13.55;8.82;;;20.60;81.30;;;;;;4941060;28;20059;-87
2023/09/08 07:00:39;;;;;;;15.07;8.85;;;21.00;80.20;;;;;;4948501;28;20578;-87
2023/09/08 07:03:07;;;;;;;12.32;8.20;;;21.30;79.40;;;;;;4947877;28;20048;-87
2023/09/08 07:05:35;;;;;;;15.20;8.48;;;21.60;77.60;;;;;;4944201;28;20077;-87
2023/09/08 07:08:02;;;;;;;15.05;8.68;;;21.80;76.70;;;;;;4947653;28;20058;-87
2023/09/08 07:10:29;;;;;;;9.27;7.18;;;22.10;76.60;;;;;;4947076;28;20113;-86
2023/09/08 07:12:56;;;;;;;17.50;8.25;;;22.30;76.20;;;;;;4951583;28;20097;-87
2023/09/08 07:15:23;;;;;;;16.58;8.73;;;22.60;75.50;;;;;;4951120;28;20054;-87
2023/09/08 07:17:50;;;;;;;11.90;7.18;;;22.90;74.00;;;;;;4946971;28;20761;-87
2023/09/08 07:20:17;;;;;;;15.82;8.07;;;23.20;72.70;;;;;;4947362;28;20062;-87
2023/09/08 07:22:44;;;;;;;13.90;7.85;;;23.50;72.10;;;;;;4949128;28;20764;-87
2023/09/08 07:25:11;;;;;;;13.98;7.38;;;23.60;69.80;;;;;;4944738;28;20047;-86
2023/09/08 07:27:38;;;;;;;11.07;7.32;;;23.80;69.70;;;;;;4950136;28;20046;-85
2023/09/08 07:30:06;;;;;;;21.80;8.05;;;24.20;68.80;;;;;;4955847;28;20059;-86
2023/09/08 07:32:33;;;;;;;12.45;7.53;;;24.50;68.30;;;;;;4946197;28;20138;-85
2023/09/08 07:35:00;;;;;;;16.13;7.20;;;24.90;67.50;;;;;;4952255;28;20050;-86
2023/09/08 07:37:27;;;;;;;15.35;7.20;;;25.30;65.50;;;;;;4950803;28;20058;-85
2023/09/08 07:39:55;;;;;;;8.35;6.68;;;25.70;63.70;;;;;;4943720;28;20496;-86
2023/09/08 07:42:23;;;;;;;11.23;6.40;;;26.30;63.20;;;;;;4942741;28;20050;-86
2023/09/08 07:44:50;;;;;;;20.15;7.03;;;27.00;62.00;;;;;;4953469;28;20047;-86
2023/09/08 07:47:17;;;;;;;20.25;7.85;;;27.70;59.50;;;;;;4954014;28;20054;-86
2023/09/08 07:49:47;;;;;;;13.40;7.15;;;28.50;58.00;;;;;;4948970;28;20095;-86
2023/09/08 07:52:14;;;;;;;10.38;6.10;;;28.90;56.40;;;;;;4947979;29;20127;-86
2023/09/08 07:54:41;;;;;;;12.07;6.75;;;29.40;55.70;;;;;;4948715;28;20046;-86
2023/09/08 07:57:08;;;;;;;16.40;7.43;;;29.30;56.20;;;;;;4943327;28;20074;-86
2023/09/08 07:59:35;;;;;;;13.45;6.40;;;29.60;55.40;;;;;;4938283;29;20051;-86
2023/09/08 08:02:04;;;;;;;19.17;6.78;;;29.60;55.80;;;;;;4950580;28;20063;-86
2023/09/08 08:04:30;;;;;;;8.13;5.82;;;29.80;54.70;;;;;;4947551;28;20106;-86
2023/09/08 08:06:58;;;;;;;9.40;6.32;;;29.60;55.70;;;;;;4944404;28;20134;-86
2023/09/08 08:09:24;;;;;;;11.48;5.60;;;29.90;54.90;;;;;;4947065;28;20094;-86
2023/09/08 08:11:51;;;;;;;13.57;6.57;;;29.90;55.20;;;;;;4942670;28;20051;-86
2023/09/08 08:14:18;;;;;;;9.43;7.07;;;29.90;54.00;;;;;;4953080;28;20463;-85
2023/09/08 08:16:45;;;;;;;12.02;5.70;;;30.20;54.20;;;;;;4950157;28;20062;-86
2023/09/08 08:19:12;;;;;;;13.77;6.20;;;30.60;53.40;;;;;;4942895;28;20392;-86
2023/09/08 08:21:41;;;;;;;9.13;6.05;;;30.70;52.70;;;;;;4944592;28;20491;-86
2023/09/08 08:24:10;;;;;;;10.55;6.63;;;30.60;52.70;;;;;;4944686;28;20699;-85
2023/09/08 08:26:37;;;;;;;14.73;6.65;;;30.40;51.90;;;;;;4971149;28;20062;-86
2023/09/08 08:29:04;;;;;;;12.70;6.45;;;30.30;53.00;;;;;;4984184;28;20393;-86
2023/09/08 08:31:31;;;;;;;13.70;6.22;;;30.20;54.30;;;;;;4981186;28;20120;-85
2023/09/08 08:33:58;;;;;;;10.23;5.70;;;30.20;53.50;;;;;;4946076;28;20065;-86
2023/09/08 08:36:25;;;;;;;8.80;5.53;;;30.30;55.00;;;;;;4948354;28;20135;-86
2023/09/08 08:38:52;;;;;;;15.45;5.70;;;30.40;53.70;;;;;;4961334;28;20046;-86
2023/09/08 08:41:19;;;;;;;8.13;4.95;;;30.50;53.70;;;;;;4948722;28;20109;-86
2023/09/08 08:43:47;;;;;;;7.18;5.30;;;30.80;53.50;;;;;;4948718;28;20276;-85
2023/09/08 08:46:16;;;;;;;14.75;5.75;;;30.70;53.50;;;;;;4963623;28;20061;-86
2023/09/08 08:48:45;;;;;;;14.85;6.90;;;30.80;53.60;;;;;;4941932;29;20134;-86
2023/09/08 08:51:13;;;;;;;14.25;6.05;;;31.00;52.90;;;;;;4962656;28;20456;-86
2023/09/08 08:53:40;;;;;;;10.95;6.57;;;31.00;51.80;;;;;;4955387;28;20460;-86
2023/09/08 08:56:09;;;;;;;8.30;5.38;;;31.30;51.60;;;;;;4951701;28;20050;-86
2023/09/08 08:58:41;;;;;;;11.98;5.55;;;31.20;52.50;;;;;;4948155;28;20062;-86
2023/09/08 09:01:12;;;;;;;10.88;6.13;;;31.30;50.70;;;;;;4938799;28;20047;-86
2023/09/08 09:03:40;;;;;;;11.70;5.50;;;31.70;50.90;;;;;;4947914;28;20077;-87
2023/09/08 09:06:07;;;;;;;9.88;6.07;;;31.70;50.30;;;;;;4969646;28;20054;-86
2023/09/08 09:08:35;;;;;;;8.90;5.60;;;31.90;48.40;;;;;;4954708;28;20049;-86
2023/09/08 09:11:02;;;;;;;6.47;5.30;;;31.90;50.50;;;;;;4953089;28;20093;-86
2023/09/08 09:13:29;;;;;;;20.20;5.97;;;32.10;48.50;;;;;;4951318;28;20126;-86
2023/09/08 09:16:01;;;;;;;9.15;5.45;;;32.40;49.20;;;;;;4945197;28;20044;-88
2023/09/08 09:18:29;;;;;;;9.70;5.95;;;32.70;49.10;;;;;;4958125;28;20075;-87
2023/09/08 09:21:00;;;;;;;14.05;6.95;;;32.60;48.20;;;;;;4944986;28;20075;-87
2023/09/08 09:23:34;;;;;;;14.77;5.43;;;33.10;48.60;;;;;;4965829;28;20443;-86
2023/09/08 09:26:06;;;;;;;11.73;5.50;;;33.80;47.10;;;;;;4972736;28;20332;-87
2023/09/08 09:28:33;;;;;;;15.82;5.63;;;34.10;45.80;;;;;;4950139;28;20567;-87
2023/09/08 09:31:00;;;;;;;10.80;5.57;;;34.60;45.60;;;;;;4953622;28;20054;-87
2023/09/08 09:33:28;;;;;;;20.20;5.63;;;34.60;45.80;;;;;;4942111;28;20165;-87
2023/09/08 09:35:55;;;;;;;10.30;5.13;;;35.30;44.50;;;;;;4948905;28;20472;-87
2023/09/08 09:38:25;;;;;;;7.22;4.97;;;35.30;43.90;;;;;;4959859;28;20050;-87
2023/09/08 09:40:52;;;;;;;10.48;5.28;;;35.30;44.20;;;;;;4950554;28;20058;-87
2023/09/08 09:43:22;;;;;;;11.40;5.47;;;35.60;43.70;;;;;;4948725;28;20047;-87
2023/09/08 09:45:50;;;;;;;10.50;5.00;;;35.80;43.20;;;;;;4968574;28;20047;-89
2023/09/08 09:48:20;;;;;;;13.43;5.50;;;35.80;44.00;;;;;;4949333;28;20069;-89
2023/09/08 09:50:47;;;;;;;7.80;4.53;;;36.20;43.40;;;;;;4938456;29;20055;-89
2023/09/08 09:53:16;;;;;;;11.77;6.20;;;36.10;43.20;;;;;;4942329;28;20580;-89
2023/09/08 09:55:45;;;;;;;14.00;5.20;;;36.70;42.90;;;;;;4964732;28;20142;-89
2023/09/08 09:58:14;;;;;;;14.15;5.00;;;37.30;41.70;;;;;;4967317;28;20047;-88
2023/09/08 10:00:41;;;;;;;10.68;5.18;;;37.40;40.00;;;;;;4947184;29;20059;-89
2023/09/08 10:03:08;;;;;;;9.70;5.13;;;37.70;40.20;;;;;;4952427;28;20058;-89
2023/09/08 10:05:37;;;;;;;8.25;5.07;;;37.90;40.50;;;;;;4958435;28;20045;-89
2023/09/08 10:08:05;;;;;;;10.25;4.57;;;38.00;40.30;;;;;;4965239;28;20051;-89
2023/09/08 10:10:34;;;;;;;15.15;5.35;;;38.50;39.80;;;;;;4953217;28;20473;-90
2023/09/08 10:13:07;;;;;;;11.93;4.93;;;39.10;39.20;;;;;;4942441;28;20411;-90
2023/09/08 10:15:35;;;;;;;22.15;5.53;;;38.60;38.90;;;;;;4955825;28;20570;-90
2023/09/08 10:18:04;;;;;;;23.80;4.85;;;39.00;39.50;;;;;;4946055;28;20072;-89
2023/09/08 10:20:34;;;;;;;11.13;5.07;;;39.30;37.70;;;;;;4947952;28;20061;-89
2023/09/08 10:23:28;;;;;;;9.82;5.15;;;39.30;38.30;;;;;;4952457;28;20106;-89
2023/09/08 10:25:59;;;;;;;10.02;4.20;;;39.20;37.60;;;;;;4938627;28;20054;-90
2023/09/08 10:28:31;;;;;;;12.82;5.05;;;39.20;38.70;;;;;;4968739;28;20482;-88
2023/09/08 10:31:00;;;;;;;12.05;5.00;;;39.40;37.90;;;;;;4947582;28;20051;-89
2023/09/08 10:33:27;;;;;;;12.57;4.93;;;38.70;39.20;;;;;;4966213;28;20101;-90
2023/09/08 10:35:55;;;;;;;7.88;4.40;;;38.60;38.90;;;;;;4949260;28;20078;-89
2023/09/08 10:38:23;;;;;;;7.00;4.28;;;38.50;38.00;;;;;;4941655;28;20043;-89
2023/09/08 10:40:51;;;;;;;6.65;4.47;;;38.40;38.60;;;;;;4958982;28;20448;-89
2023/09/08 10:43:19;;;;;;;8.30;4.32;;;38.50;39.00;;;;;;4947969;28;20404;-91
2023/09/08 10:45:47;;;;;;;9.25;4.80;;;38.40;39.10;;;;;;4944390;28;20047;-91
2023/09/08 10:48:15;;;;;;;6.68;4.50;;;38.20;38.70;;;;;;4951456;28;20225;-91
2023/09/08 10:50:43;;;;;;;9.95;4.88;;;37.50;39.20;;;;;;4956386;28;20105;-91
2023/09/08 10:53:17;;;;;;;10.75;4.40;;;37.70;39.10;;;;;;4964546;28;20050;-91
2023/09/08 10:55:53;;;;;;;8.60;4.43;;;37.70;39.30;;;;;;4962716;28;20447;-91
2023/09/08 10:58:42;;;;;;;15.05;5.30;;;37.60;39.10;;;;;;4947084;28;20086;-91
2023/09/08 11:01:16;;;;;;;9.38;4.70;;;37.80;39.00;;;;;;4959291;28;20061;-91
2023/09/08 11:03:47;;;;;;;8.43;4.50;;;38.00;38.70;;;;;;4952109;28;20046;-91
2023/09/08 11:06:18;;;;;;;9.82;4.22;;;38.00;38.60;;;;;;4951273;28;20340;-90
2023/09/08 11:08:46;;;;;;;10.75;4.18;;;38.00;38.60;;;;;;4965357;28;20133;-91
2023/09/08 11:11:15;;;;;;;8.00;4.53;;;38.20;39.00;;;;;;4965933;28;20078;-91
2023/09/08 11:13:45;;;;;;;7.40;5.15;;;37.90;38.90;;;;;;4961144;28;20054;-91
2023/09/08 11:16:21;;;;;;;7.75;4.35;;;38.10;39.00;;;;;;4955539;28;20727;-91
2023/09/08 11:18:51;;;;;;;5.13;4.47;;;38.40;38.80;;;;;;4953794;28;20054;-91
2023/09/08 11:21:18;;;;;;;14.70;4.88;;;38.60;37.10;;;;;;4947914;28;20099;-91
2023/09/08 11:23:45;;;;;;;5.38;4.03;;;38.90;37.10;;;;;;4953238;28;20054;-91
2023/09/08 11:26:13;;;;;;;22.20;4.90;;;39.10;36.80;;;;;;4957090;28;20039;-91
2023/09/08 11:28:41;;;;;;;5.65;4.03;;;39.30;36.90;;;;;;4950876;28;20125;-90
2023/09/08 11:31:11;;;;;;;6.35;4.30;;;39.70;35.80;;;;;;4967317;28;20062;-91
2023/09/08 11:33:39;;;;;;;4.80;4.30;;;39.40;36.00;;;;;;4949078;29;20047;-91
2023/09/08 11:36:14;;;;;;;14.43;4.63;;;39.30;35.90;;;;;;4947100;28;20050;-91
2023/09/08 11:38:45;;;;;;;6.88;4.93;;;39.60;36.70;;;;;;4951743;28;20138;-90
2023/09/08 11:41:12;;;;;;;9.38;4.15;;;40.10;36.10;;;;;;4963337;28;20069;-91
2023/09/08 11:43:39;;;;;;;5.43;3.92;;;40.30;36.00;;;;;;4958124;28;20047;-91
2023/09/08 11:46:06;;;;;;;7.10;4.85;;;39.70;36.50;;;;;;4952755;28;20065;-91
2023/09/08 11:48:35;;;;;;;8.48;4.80;;;40.10;36.60;;;;;;4967742;28;20110;-91
2023/09/08 11:51:02;;;;;;;12.75;4.35;;;40.10;36.50;;;;;;4952932;28;20087;-91
2023/09/08 11:53:33;;;;;;;6.53;4.45;;;40.40;37.20;;;;;;4960970;28;20062;-92
2023/09/08 11:56:00;;;;;;;6.43;4.10;;;40.70;35.20;;;;;;4954781;28;20054;-92
2023/09/08 11:58:27;;;;;;;10.77;4.20;;;40.60;35.40;;;;;;4944148;29;20106;-92
2023/09/08 12:00:55;;;;;;;5.38;4.03;;;41.20;35.50;;;;;;4953408;28;20058;-92
2023/09/08 12:03:22;;;;;;;8.23;4.07;;;41.40;34.00;;;;;;4954817;28;20077;-92
2023/09/08 12:05:52;;;;;;;10.98;4.38;;;41.60;34.60;;;;;;4956431;28;20142;-91
2023/09/08 12:08:19;;;;;;;16.45;5.18;;;41.40;35.40;;;;;;4942229;28;20054;-92
2023/09/08 12:10:46;;;;;;;7.60;4.60;;;41.50;35.20;;;;;;4952493;29;20043;-92
2023/09/08 12:13:21;;;;;;;7.07;4.07;;;41.90;35.40;;;;;;4972909;28;20146;-92
2023/09/08 12:15:48;;;;;;;11.55;4.40;;;42.10;36.10;;;;;;4949623;28;20043;-92
2023/09/08 12:18:16;;;;;;;7.80;3.97;;;42.40;35.00;;;;;;4959033;28;20043;-91
2023/09/08 12:20:44;;;;;;;9.50;4.50;;;42.30;34.60;;;;;;4950348;29;20039;-91
2023/09/08 12:23:19;;;;;;;7.20;3.90;;;42.50;33.80;;;;;;4967927;28;20504;-92
2023/09/08 12:25:46;;;;;;;17.92;4.70;;;43.30;33.10;;;;;;4945481;29;20051;-92
2023/09/08 12:28:15;;;;;;;7.45;4.75;;;43.70;32.80;;;;;;4943780;28;20050;-92
2023/09/08 12:30:43;;;;;;;6.28;4.28;;;43.60;33.00;;;;;;4958608;28;20051;-92
2023/09/08 12:33:10;;;;;;;5.95;3.63;;;43.60;33.00;;;;;;4951852;28;20047;-92
2023/09/08 12:35:38;;;;;;;5.40;3.75;;;43.90;32.40;;;;;;4937409;29;20050;-91